Terminal Aerodrome Forecast
Issued by NWS

Home | Current Version | Previous Version | Text Only | Print | Product List | Glossary On
Versions: 1 2 3 4 5 6 7 8 9 10 11 12 13 14 15 16 17 18 19 20 21 22
000
FTUS43 KDLH 260527
TAFHIB
TAF
KHIB 260527Z 2606/2706 16005KT P6SM BKN060
      TEMPO 2606/2608 4SM BR OVC008
     FM260800 15005KT 4SM BR BKN006
     FM261300 15006KT P6SM BKN012
     FM261800 21008KT P6SM SCT025 SCT080=

USA.gov is the U.S. government's official web portal to all federal, state and local government web resources and services.